Terminal Aerodrome Forecast
Issued by NWS

Home | Current Version | Previous Version | Text Only | Print | Product List | Glossary On
Versions: 1 2 3 4 5 6 7 8 9 10 11 12 13 14 15
000
FTUS45 KRIW 291100
TAFBPI
TAF
KBPI 291124Z 2912/3012 35009KT P6SM SKC
     FM291600 VRB06KT P6SM SKC
     FM292100 30010KT P6SM SCT200
     FM300200 35007KT P6SM FEW120 SCT200=

USA.gov is the U.S. government's official web portal to all federal, state and local government web resources and services.